sensor_id;sensor_type;location;lat;lon;timestamp;P1;durP1;ratioP1;P2;durP2;ratioP2
15595;SDS011;7898;48.658;9.068;2022-08-25T00:00:44;5.50;;;4.63;;
15595;SDS011;7898;48.658;9.068;2022-08-25T00:03:15;5.80;;;5.05;;
15595;SDS011;7898;48.658;9.068;2022-08-25T00:05:44;5.03;;;4.45;;
15595;SDS011;7898;48.658;9.068;2022-08-25T00:08:11;5.93;;;4.72;;
15595;SDS011;7898;48.658;9.068;2022-08-25T00:10:39;5.22;;;4.40;;
15595;SDS011;7898;48.658;9.068;2022-08-25T00:13:06;4.72;;;4.15;;
15595;SDS011;7898;48.658;9.068;2022-08-25T00:15:34;7.55;;;4.95;;
15595;SDS011;7898;48.658;9.068;2022-08-25T00:18:02;4.88;;;4.38;;
15595;SDS011;7898;48.658;9.068;2022-08-25T00:20:30;4.40;;;4.00;;
15595;SDS011;7898;48.658;9.068;2022-08-25T00:22:58;7.50;;;4.40;;
15595;SDS011;7898;48.658;9.068;2022-08-25T00:25:25;4.90;;;4.40;;
15595;SDS011;7898;48.658;9.068;2022-08-25T00:27:52;6.32;;;4.35;;
15595;SDS011;7898;48.658;9.068;2022-08-25T00:30:19;4.95;;;4.53;;
15595;SDS011;7898;48.658;9.068;2022-08-25T00:32:47;7.75;;;4.70;;
15595;SDS011;7898;48.658;9.068;2022-08-25T00:35:14;4.88;;;4.38;;
15595;SDS011;7898;48.658;9.068;2022-08-25T00:37:41;4.80;;;4.30;;
15595;SDS011;7898;48.658;9.068;2022-08-25T00:40:10;4.53;;;3.78;;
15595;SDS011;7898;48.658;9.068;2022-08-25T00:42:37;4.50;;;4.10;;
15595;SDS011;7898;48.658;9.068;2022-08-25T00:45:06;4.60;;;4.20;;
15595;SDS011;7898;48.658;9.068;2022-08-25T00:47:33;4.40;;;4.00;;
15595;SDS011;7898;48.658;9.068;2022-08-25T00:50:02;4.45;;;4.05;;
15595;SDS011;7898;48.658;9.068;2022-08-25T00:52:31;4.55;;;4.15;;
15595;SDS011;7898;48.658;9.068;2022-08-25T00:55:04;8.13;;;4.18;;
15595;SDS011;7898;48.658;9.068;2022-08-25T00:57:36;4.40;;;4.00;;
15595;SDS011;7898;48.658;9.068;2022-08-25T01:00:08;6.15;;;4.38;;
15595;SDS011;7898;48.658;9.068;2022-08-25T01:02:39;4.40;;;4.00;;
15595;SDS011;7898;48.658;9.068;2022-08-25T01:05:06;4.32;;;3.92;;
15595;SDS011;7898;48.658;9.068;2022-08-25T01:07:33;6.43;;;4.15;;
15595;SDS011;7898;48.658;9.068;2022-08-25T01:10:03;5.85;;;4.30;;
15595;SDS011;7898;48.658;9.068;2022-08-25T01:12:31;5.65;;;4.75;;
15595;SDS011;7898;48.658;9.068;2022-08-25T01:15:00;6.70;;;4.93;;
15595;SDS011;7898;48.658;9.068;2022-08-25T01:17:31;6.50;;;4.85;;
15595;SDS011;7898;48.658;9.068;2022-08-25T01:20:00;5.20;;;4.70;;
15595;SDS011;7898;48.658;9.068;2022-08-25T01:22:28;7.38;;;4.60;;
15595;SDS011;7898;48.658;9.068;2022-08-25T01:24:57;5.05;;;4.60;;
15595;SDS011;7898;48.658;9.068;2022-08-25T01:27:28;7.95;;;4.43;;
15595;SDS011;7898;48.658;9.068;2022-08-25T01:29:55;5.57;;;4.80;;
15595;SDS011;7898;48.658;9.068;2022-08-25T01:32:22;8.30;;;4.22;;
15595;SDS011;7898;48.658;9.068;2022-08-25T01:34:49;6.30;;;4.57;;
15595;SDS011;7898;48.658;9.068;2022-08-25T01:37:16;4.70;;;4.30;;
15595;SDS011;7898;48.658;9.068;2022-08-25T01:39:46;7.22;;;4.38;;
15595;SDS011;7898;48.658;9.068;2022-08-25T01:42:27;5.13;;;4.30;;
15595;SDS011;7898;48.658;9.068;2022-08-25T01:45:02;4.80;;;4.30;;
15595;SDS011;7898;48.658;9.068;2022-08-25T01:47:30;6.97;;;4.57;;
15595;SDS011;7898;48.658;9.068;2022-08-25T01:49:57;6.13;;;4.40;;
15595;SDS011;7898;48.658;9.068;2022-08-25T01:52:27;5.55;;;4.82;;
15595;SDS011;7898;48.658;9.068;2022-08-25T01:54:58;5.25;;;4.50;;
15595;SDS011;7898;48.658;9.068;2022-08-25T01:57:27;6.93;;;5.00;;
15595;SDS011;7898;48.658;9.068;2022-08-25T01:59:55;5.93;;;4.47;;
15595;SDS011;7898;48.658;9.068;2022-08-25T02:02:22;5.20;;;4.70;;
15595;SDS011;7898;48.658;9.068;2022-08-25T02:04:49;5.97;;;4.53;;
15595;SDS011;7898;48.658;9.068;2022-08-25T02:07:16;6.05;;;4.30;;
15595;SDS011;7898;48.658;9.068;2022-08-25T02:09:44;4.70;;;4.30;;
15595;SDS011;7898;48.658;9.068;2022-08-25T02:12:12;4.88;;;4.35;;
15595;SDS011;7898;48.658;9.068;2022-08-25T02:14:39;4.63;;;4.20;;
15595;SDS011;7898;48.658;9.068;2022-08-25T02:17:06;4.75;;;4.25;;
15595;SDS011;7898;48.658;9.068;2022-08-25T02:19:34;4.97;;;4.47;;
15595;SDS011;7898;48.658;9.068;2022-08-25T02:22:00;4.95;;;4.40;;
15595;SDS011;7898;48.658;9.068;2022-08-25T02:24:27;6.65;;;4.22;;
15595;SDS011;7898;48.658;9.068;2022-08-25T02:26:54;5.88;;;4.30;;
15595;SDS011;7898;48.658;9.068;2022-08-25T02:29:24;4.75;;;4.35;;
15595;SDS011;7898;48.658;9.068;2022-08-25T02:31:51;5.70;;;5.13;;
15595;SDS011;7898;48.658;9.068;2022-08-25T02:34:18;6.03;;;4.38;;
15595;SDS011;7898;48.658;9.068;2022-08-25T02:36:45;5.03;;;4.53;;
15595;SDS011;7898;48.658;9.068;2022-08-25T02:39:12;7.30;;;4.90;;
15595;SDS011;7898;48.658;9.068;2022-08-25T02:41:39;5.85;;;5.03;;
15595;SDS011;7898;48.658;9.068;2022-08-25T02:44:06;5.55;;;4.90;;
15595;SDS011;7898;48.658;9.068;2022-08-25T02:46:35;5.68;;;5.13;;
15595;SDS011;7898;48.658;9.068;2022-08-25T02:49:03;5.13;;;4.63;;
15595;SDS011;7898;48.658;9.068;2022-08-25T02:51:30;5.70;;;4.97;;
15595;SDS011;7898;48.658;9.068;2022-08-25T02:53:59;5.10;;;4.65;;
15595;SDS011;7898;48.658;9.068;2022-08-25T02:56:27;5.05;;;4.50;;
15595;SDS011;7898;48.658;9.068;2022-08-25T02:58:55;5.38;;;4.18;;
15595;SDS011;7898;48.658;9.068;2022-08-25T03:01:22;6.53;;;5.90;;
15595;SDS011;7898;48.658;9.068;2022-08-25T03:03:50;6.68;;;6.05;;
15595;SDS011;7898;48.658;9.068;2022-08-25T03:06:18;6.68;;;5.97;;
15595;SDS011;7898;48.658;9.068;2022-08-25T03:08:48;7.35;;;5.90;;
15595;SDS011;7898;48.658;9.068;2022-08-25T03:11:15;6.00;;;5.40;;
15595;SDS011;7898;48.658;9.068;2022-08-25T03:13:43;10.23;;;5.60;;
15595;SDS011;7898;48.658;9.068;2022-08-25T03:16:09;7.55;;;5.82;;
15595;SDS011;7898;48.658;9.068;2022-08-25T03:18:37;7.15;;;5.20;;
15595;SDS011;7898;48.658;9.068;2022-08-25T03:21:06;5.90;;;5.22;;
15595;SDS011;7898;48.658;9.068;2022-08-25T03:23:33;5.75;;;5.20;;
15595;SDS011;7898;48.658;9.068;2022-08-25T03:26:00;6.10;;;4.65;;
15595;SDS011;7898;48.658;9.068;2022-08-25T03:28:44;5.85;;;5.32;;
15595;SDS011;7898;48.658;9.068;2022-08-25T03:31:11;8.52;;;6.30;;
15595;SDS011;7898;48.658;9.068;2022-08-25T03:33:38;7.75;;;5.85;;
15595;SDS011;7898;48.658;9.068;2022-08-25T03:36:07;5.95;;;5.38;;
15595;SDS011;7898;48.658;9.068;2022-08-25T03:38:36;5.82;;;5.30;;
15595;SDS011;7898;48.658;9.068;2022-08-25T03:41:09;5.35;;;4.47;;
15595;SDS011;7898;48.658;9.068;2022-08-25T03:43:41;11.32;;;5.30;;
15595;SDS011;7898;48.658;9.068;2022-08-25T03:46:08;6.68;;;5.38;;
15595;SDS011;7898;48.658;9.068;2022-08-25T03:48:35;5.40;;;4.90;;
15595;SDS011;7898;48.658;9.068;2022-08-25T03:51:02;6.72;;;5.57;;
15595;SDS011;7898;48.658;9.068;2022-08-25T03:53:30;6.13;;;5.53;;
15595;SDS011;7898;48.658;9.068;2022-08-25T03:55:57;6.25;;;5.05;;
15595;SDS011;7898;48.658;9.068;2022-08-25T03:58:24;6.03;;;5.43;;
15595;SDS011;7898;48.658;9.068;2022-08-25T04:00:51;6.60;;;5.10;;
15595;SDS011;7898;48.658;9.068;2022-08-25T04:03:18;6.20;;;5.55;;
15595;SDS011;7898;48.658;9.068;2022-08-25T04:05:45;7.60;;;5.63;;
15595;SDS011;7898;48.658;9.068;2022-08-25T04:08:12;5.85;;;4.95;;
15595;SDS011;7898;48.658;9.068;2022-08-25T04:10:40;6.13;;;5.20;;
15595;SDS011;7898;48.658;9.068;2022-08-25T04:13:07;6.97;;;5.53;;
15595;SDS011;7898;48.658;9.068;2022-08-25T04:15:36;6.55;;;5.85;;
15595;SDS011;7898;48.658;9.068;2022-08-25T04:18:07;6.85;;;6.18;;
15595;SDS011;7898;48.658;9.068;2022-08-25T04:20:35;7.03;;;6.22;;
15595;SDS011;7898;48.658;9.068;2022-08-25T04:23:02;6.78;;;5.15;;
15595;SDS011;7898;48.658;9.068;2022-08-25T04:25:29;6.38;;;5.78;;
15595;SDS011;7898;48.658;9.068;2022-08-25T04:27:58;6.22;;;5.63;;
15595;SDS011;7898;48.658;9.068;2022-08-25T04:30:24;6.10;;;5.50;;
15595;SDS011;7898;48.658;9.068;2022-08-25T04:32:51;6.07;;;5.47;;
15595;SDS011;7898;48.658;9.068;2022-08-25T04:35:18;6.45;;;5.63;;
15595;SDS011;7898;48.658;9.068;2022-08-25T04:37:47;5.88;;;5.38;;
15595;SDS011;7898;48.658;9.068;2022-08-25T04:40:13;6.20;;;5.60;;
15595;SDS011;7898;48.658;9.068;2022-08-25T04:42:40;7.28;;;5.82;;
15595;SDS011;7898;48.658;9.068;2022-08-25T04:45:10;6.30;;;5.70;;
15595;SDS011;7898;48.658;9.068;2022-08-25T04:47:37;6.35;;;5.25;;
15595;SDS011;7898;48.658;9.068;2022-08-25T04:50:04;6.53;;;5.93;;
15595;SDS011;7898;48.658;9.068;2022-08-25T04:52:32;6.35;;;5.75;;
15595;SDS011;7898;48.658;9.068;2022-08-25T04:54:59;7.15;;;5.45;;
15595;SDS011;7898;48.658;9.068;2022-08-25T04:57:26;8.85;;;5.97;;
15595;SDS011;7898;48.658;9.068;2022-08-25T04:59:53;7.30;;;6.20;;
15595;SDS011;7898;48.658;9.068;2022-08-25T05:02:22;6.00;;;5.40;;
15595;SDS011;7898;48.658;9.068;2022-08-25T05:04:50;8.27;;;6.22;;
15595;SDS011;7898;48.658;9.068;2022-08-25T05:07:17;8.48;;;6.32;;
15595;SDS011;7898;48.658;9.068;2022-08-25T05:09:44;7.15;;;5.70;;
15595;SDS011;7898;48.658;9.068;2022-08-25T05:12:11;8.25;;;5.90;;
15595;SDS011;7898;48.658;9.068;2022-08-25T05:14:38;7.30;;;6.60;;
15595;SDS011;7898;48.658;9.068;2022-08-25T05:17:05;7.25;;;6.53;;
15595;SDS011;7898;48.658;9.068;2022-08-25T05:19:33;7.43;;;6.32;;
15595;SDS011;7898;48.658;9.068;2022-08-25T05:22:01;8.60;;;6.00;;
15595;SDS011;7898;48.658;9.068;2022-08-25T05:24:28;11.00;;;6.65;;
15595;SDS011;7898;48.658;9.068;2022-08-25T05:26:55;8.07;;;6.30;;
15595;SDS011;7898;48.658;9.068;2022-08-25T05:29:22;7.45;;;6.65;;
15595;SDS011;7898;48.658;9.068;2022-08-25T05:31:50;7.93;;;6.85;;
15595;SDS011;7898;48.658;9.068;2022-08-25T05:34:17;7.53;;;6.22;;
15595;SDS011;7898;48.658;9.068;2022-08-25T05:36:46;9.50;;;6.45;;
15595;SDS011;7898;48.658;9.068;2022-08-25T05:39:13;7.28;;;6.57;;
15595;SDS011;7898;48.658;9.068;2022-08-25T05:41:40;8.73;;;7.10;;
15595;SDS011;7898;48.658;9.068;2022-08-25T05:44:07;8.15;;;7.32;;
15595;SDS011;7898;48.658;9.068;2022-08-25T05:46:34;7.72;;;6.65;;
15595;SDS011;7898;48.658;9.068;2022-08-25T05:49:01;8.45;;;6.60;;
15595;SDS011;7898;48.658;9.068;2022-08-25T05:51:28;7.68;;;6.28;;
15595;SDS011;7898;48.658;9.068;2022-08-25T05:53:56;7.30;;;6.57;;
15595;SDS011;7898;48.658;9.068;2022-08-25T05:56:23;9.07;;;6.97;;
15595;SDS011;7898;48.658;9.068;2022-08-25T05:58:50;7.22;;;6.53;;
15595;SDS011;7898;48.658;9.068;2022-08-25T06:01:18;9.40;;;6.82;;
15595;SDS011;7898;48.658;9.068;2022-08-25T06:04:05;7.55;;;6.75;;
15595;SDS011;7898;48.658;9.068;2022-08-25T06:06:32;8.88;;;7.22;;
15595;SDS011;7898;48.658;9.068;2022-08-25T06:09:00;8.20;;;6.82;;
15595;SDS011;7898;48.658;9.068;2022-08-25T06:11:30;6.50;;;5.88;;
15595;SDS011;7898;48.658;9.068;2022-08-25T06:13:57;9.93;;;6.63;;
15595;SDS011;7898;48.658;9.068;2022-08-25T06:16:24;8.38;;;6.35;;
15595;SDS011;7898;48.658;9.068;2022-08-25T06:18:51;7.57;;;6.40;;
15595;SDS011;7898;48.658;9.068;2022-08-25T06:21:19;9.25;;;5.80;;
15595;SDS011;7898;48.658;9.068;2022-08-25T06:23:46;10.48;;;6.50;;
15595;SDS011;7898;48.658;9.068;2022-08-25T06:26:15;7.40;;;6.57;;
15595;SDS011;7898;48.658;9.068;2022-08-25T06:28:42;10.02;;;6.80;;
15595;SDS011;7898;48.658;9.068;2022-08-25T06:31:09;8.15;;;6.25;;
15595;SDS011;7898;48.658;9.068;2022-08-25T06:33:36;9.75;;;6.75;;
15595;SDS011;7898;48.658;9.068;2022-08-25T06:36:03;9.02;;;6.63;;
15595;SDS011;7898;48.658;9.068;2022-08-25T06:38:31;8.43;;;7.57;;
15595;SDS011;7898;48.658;9.068;2022-08-25T06:41:00;8.88;;;7.13;;
15595;SDS011;7898;48.658;9.068;2022-08-25T06:43:29;10.02;;;6.57;;
15595;SDS011;7898;48.658;9.068;2022-08-25T06:45:57;9.18;;;6.85;;
15595;SDS011;7898;48.658;9.068;2022-08-25T06:48:24;7.82;;;6.20;;
15595;SDS011;7898;48.658;9.068;2022-08-25T06:50:51;8.05;;;6.90;;
15595;SDS011;7898;48.658;9.068;2022-08-25T06:53:18;7.47;;;5.85;;
15595;SDS011;7898;48.658;9.068;2022-08-25T06:55:44;8.88;;;6.55;;
15595;SDS011;7898;48.658;9.068;2022-08-25T06:58:21;6.65;;;5.95;;
15595;SDS011;7898;48.658;9.068;2022-08-25T07:00:50;6.55;;;5.95;;
15595;SDS011;7898;48.658;9.068;2022-08-25T07:03:17;6.72;;;5.97;;
15595;SDS011;7898;48.658;9.068;2022-08-25T07:05:49;7.93;;;5.95;;
15595;SDS011;7898;48.658;9.068;2022-08-25T07:08:16;6.85;;;5.30;;
15595;SDS011;7898;48.658;9.068;2022-08-25T07:10:44;6.70;;;6.10;;
15595;SDS011;7898;48.658;9.068;2022-08-25T07:13:11;6.65;;;5.97;;
15595;SDS011;7898;48.658;9.068;2022-08-25T07:15:39;6.00;;;5.13;;
15595;SDS011;7898;48.658;9.068;2022-08-25T07:18:08;5.47;;;5.00;;
15595;SDS011;7898;48.658;9.068;2022-08-25T07:20:35;6.13;;;5.63;;
15595;SDS011;7898;48.658;9.068;2022-08-25T07:23:03;7.40;;;5.50;;
15595;SDS011;7898;48.658;9.068;2022-08-25T07:25:31;6.35;;;5.63;;
15595;SDS011;7898;48.658;9.068;2022-08-25T07:27:58;6.22;;;5.60;;
15595;SDS011;7898;48.658;9.068;2022-08-25T07:30:25;5.43;;;4.80;;
15595;SDS011;7898;48.658;9.068;2022-08-25T07:32:52;5.70;;;5.18;;
15595;SDS011;7898;48.658;9.068;2022-08-25T07:35:20;8.35;;;5.95;;
15595;SDS011;7898;48.658;9.068;2022-08-25T07:37:50;5.45;;;4.95;;
15595;SDS011;7898;48.658;9.068;2022-08-25T07:40:21;5.97;;;5.38;;
15595;SDS011;7898;48.658;9.068;2022-08-25T07:42:51;7.75;;;5.90;;
15595;SDS011;7898;48.658;9.068;2022-08-25T07:45:19;6.13;;;5.60;;
15595;SDS011;7898;48.658;9.068;2022-08-25T07:47:54;5.90;;;5.38;;
15595;SDS011;7898;48.658;9.068;2022-08-25T07:50:23;6.10;;;5.22;;
15595;SDS011;7898;48.658;9.068;2022-08-25T07:52:50;6.10;;;5.50;;
15595;SDS011;7898;48.658;9.068;2022-08-25T07:55:17;6.43;;;5.85;;
15595;SDS011;7898;48.658;9.068;2022-08-25T07:57:45;6.90;;;5.97;;
15595;SDS011;7898;48.658;9.068;2022-08-25T08:00:12;8.73;;;6.35;;
15595;SDS011;7898;48.658;9.068;2022-08-25T08:02:40;8.65;;;5.68;;
15595;SDS011;7898;48.658;9.068;2022-08-25T08:05:09;6.40;;;5.72;;
15595;SDS011;7898;48.658;9.068;2022-08-25T08:07:39;8.10;;;6.20;;
15595;SDS011;7898;48.658;9.068;2022-08-25T08:10:07;6.28;;;5.68;;
15595;SDS011;7898;48.658;9.068;2022-08-25T08:12:45;6.55;;;5.75;;
15595;SDS011;7898;48.658;9.068;2022-08-25T08:15:12;8.13;;;6.60;;
15595;SDS011;7898;48.658;9.068;2022-08-25T08:17:39;6.03;;;5.53;;
15595;SDS011;7898;48.658;9.068;2022-08-25T08:20:07;6.70;;;5.90;;
15595;SDS011;7898;48.658;9.068;2022-08-25T08:22:36;6.80;;;5.88;;
15595;SDS011;7898;48.658;9.068;2022-08-25T08:25:06;6.78;;;6.05;;
15595;SDS011;7898;48.658;9.068;2022-08-25T08:27:34;6.18;;;5.53;;
15595;SDS011;7898;48.658;9.068;2022-08-25T08:30:04;7.22;;;5.93;;
15595;SDS011;7898;48.658;9.068;2022-08-25T08:32:31;6.78;;;6.10;;
15595;SDS011;7898;48.658;9.068;2022-08-25T08:34:58;8.52;;;6.15;;
15595;SDS011;7898;48.658;9.068;2022-08-25T08:37:25;8.00;;;6.70;;
15595;SDS011;7898;48.658;9.068;2022-08-25T08:39:54;6.82;;;6.20;;
15595;SDS011;7898;48.658;9.068;2022-08-25T08:42:28;6.85;;;5.78;;
15595;SDS011;7898;48.658;9.068;2022-08-25T08:48:02;6.20;;;5.60;;
15595;SDS011;7898;48.658;9.068;2022-08-25T08:50:45;8.90;;;5.97;;
15595;SDS011;7898;48.658;9.068;2022-08-25T08:53:18;6.82;;;5.65;;
15595;SDS011;7898;48.658;9.068;2022-08-25T08:55:53;6.82;;;5.85;;
15595;SDS011;7898;48.658;9.068;2022-08-25T08:58:23;7.28;;;5.90;;
15595;SDS011;7898;48.658;9.068;2022-08-25T09:00:56;8.15;;;5.78;;
15595;SDS011;7898;48.658;9.068;2022-08-25T09:03:28;6.88;;;6.15;;
15595;SDS011;7898;48.658;9.068;2022-08-25T09:06:02;7.10;;;5.72;;
15595;SDS011;7898;48.658;9.068;2022-08-25T09:08:32;6.70;;;5.97;;
15595;SDS011;7898;48.658;9.068;2022-08-25T09:11:05;6.80;;;6.10;;
15595;SDS011;7898;48.658;9.068;2022-08-25T09:13:42;6.55;;;5.63;;
15595;SDS011;7898;48.658;9.068;2022-08-25T09:16:20;5.97;;;5.43;;
15595;SDS011;7898;48.658;9.068;2022-08-25T09:19:21;6.45;;;5.85;;
15595;SDS011;7898;48.658;9.068;2022-08-25T09:22:09;6.95;;;5.60;;
15595;SDS011;7898;48.658;9.068;2022-08-25T09:24:46;6.07;;;5.35;;
15595;SDS011;7898;48.658;9.068;2022-08-25T09:27:24;8.23;;;5.43;;
15595;SDS011;7898;48.658;9.068;2022-08-25T09:30:02;7.38;;;5.68;;
15595;SDS011;7898;48.658;9.068;2022-08-25T09:32:33;5.90;;;5.40;;
15595;SDS011;7898;48.658;9.068;2022-08-25T09:35:02;6.35;;;5.72;;
15595;SDS011;7898;48.658;9.068;2022-08-25T09:37:42;6.50;;;5.55;;
15595;SDS011;7898;48.658;9.068;2022-08-25T09:40:20;5.47;;;5.00;;
15595;SDS011;7898;48.658;9.068;2022-08-25T09:42:50;6.38;;;5.78;;
15595;SDS011;7898;48.658;9.068;2022-08-25T09:45:29;7.22;;;5.55;;
15595;SDS011;7898;48.658;9.068;2022-08-25T09:48:01;7.00;;;5.10;;
15595;SDS011;7898;48.658;9.068;2022-08-25T09:50:29;6.82;;;4.80;;
15595;SDS011;7898;48.658;9.068;2022-08-25T09:53:08;6.75;;;5.40;;
15595;SDS011;7898;48.658;9.068;2022-08-25T09:55:39;5.72;;;5.22;;
15595;SDS011;7898;48.658;9.068;2022-08-25T09:58:17;6.43;;;5.63;;
15595;SDS011;7898;48.658;9.068;2022-08-25T10:00:58;6.22;;;5.63;;
15595;SDS011;7898;48.658;9.068;2022-08-25T10:03:28;7.10;;;5.57;;
15595;SDS011;7898;48.658;9.068;2022-08-25T10:05:57;7.03;;;6.18;;
15595;SDS011;7898;48.658;9.068;2022-08-25T10:08:29;6.05;;;5.45;;
15595;SDS011;7898;48.658;9.068;2022-08-25T10:11:00;6.82;;;5.45;;
15595;SDS011;7898;48.658;9.068;2022-08-25T10:13:35;6.28;;;5.68;;
15595;SDS011;7898;48.658;9.068;2022-08-25T10:16:06;7.20;;;5.72;;
15595;SDS011;7898;48.658;9.068;2022-08-25T10:18:36;6.10;;;5.60;;
15595;SDS011;7898;48.658;9.068;2022-08-25T10:21:05;5.82;;;5.32;;
15595;SDS011;7898;48.658;9.068;2022-08-25T10:23:35;7.47;;;5.80;;
15595;SDS011;7898;48.658;9.068;2022-08-25T10:26:09;7.13;;;5.97;;
15595;SDS011;7898;48.658;9.068;2022-08-25T10:28:45;37.45;;;18.85;;
15595;SDS011;7898;48.658;9.068;2022-08-25T10:31:25;7.07;;;5.40;;
15595;SDS011;7898;48.658;9.068;2022-08-25T10:34:03;6.07;;;5.47;;
15595;SDS011;7898;48.658;9.068;2022-08-25T10:36:46;5.93;;;5.35;;
15595;SDS011;7898;48.658;9.068;2022-08-25T10:39:25;5.85;;;5.35;;
15595;SDS011;7898;48.658;9.068;2022-08-25T10:42:00;6.60;;;5.50;;
15595;SDS011;7898;48.658;9.068;2022-08-25T10:44:36;6.15;;;5.57;;
15595;SDS011;7898;48.658;9.068;2022-08-25T10:47:32;5.55;;;5.05;;
15595;SDS011;7898;48.658;9.068;2022-08-25T10:50:12;4.50;;;4.10;;
15595;SDS011;7898;48.658;9.068;2022-08-25T10:52:53;5.50;;;5.05;;
15595;SDS011;7898;48.658;9.068;2022-08-25T10:55:35;5.03;;;4.63;;
15595;SDS011;7898;48.658;9.068;2022-08-25T10:58:13;5.15;;;4.75;;
15595;SDS011;7898;48.658;9.068;2022-08-25T11:00:51;5.70;;;5.18;;
15595;SDS011;7898;48.658;9.068;2022-08-25T11:03:30;7.60;;;5.97;;
15595;SDS011;7898;48.658;9.068;2022-08-25T11:06:08;18.08;;;13.60;;
15595;SDS011;7898;48.658;9.068;2022-08-25T11:08:42;4.95;;;4.43;;
15595;SDS011;7898;48.658;9.068;2022-08-25T11:11:15;5.25;;;4.75;;
15595;SDS011;7898;48.658;9.068;2022-08-25T11:13:50;4.80;;;4.40;;
15595;SDS011;7898;48.658;9.068;2022-08-25T11:16:25;5.07;;;4.57;;
15595;SDS011;7898;48.658;9.068;2022-08-25T11:19:01;5.93;;;4.30;;
15595;SDS011;7898;48.658;9.068;2022-08-25T11:21:34;4.25;;;3.92;;
15595;SDS011;7898;48.658;9.068;2022-08-25T11:24:11;4.57;;;4.18;;
15595;SDS011;7898;48.658;9.068;2022-08-25T11:26:53;4.90;;;4.50;;
15595;SDS011;7898;48.658;9.068;2022-08-25T11:29:22;4.80;;;4.35;;
15595;SDS011;7898;48.658;9.068;2022-08-25T11:31:56;4.72;;;4.22;;
15595;SDS011;7898;48.658;9.068;2022-08-25T11:34:24;4.18;;;3.88;;
15595;SDS011;7898;48.658;9.068;2022-08-25T11:36:56;4.50;;;4.10;;
15595;SDS011;7898;48.658;9.068;2022-08-25T11:39:31;4.97;;;4.55;;
15595;SDS011;7898;48.658;9.068;2022-08-25T11:42:11;5.45;;;4.55;;
15595;SDS011;7898;48.658;9.068;2022-08-25T11:44:49;5.13;;;4.70;;
15595;SDS011;7898;48.658;9.068;2022-08-25T11:47:33;6.57;;;4.88;;
15595;SDS011;7898;48.658;9.068;2022-08-25T11:50:22;5.35;;;4.57;;
15595;SDS011;7898;48.658;9.068;2022-08-25T11:52:52;4.70;;;4.30;;
15595;SDS011;7898;48.658;9.068;2022-08-25T11:55:21;4.22;;;3.92;;
15595;SDS011;7898;48.658;9.068;2022-08-25T12:00:55;5.70;;;3.92;;
15595;SDS011;7898;48.658;9.068;2022-08-25T12:06:36;5.22;;;4.75;;
15595;SDS011;7898;48.658;9.068;2022-08-25T12:12:37;4.75;;;4.35;;
15595;SDS011;7898;48.658;9.068;2022-08-25T12:15:22;5.90;;;4.65;;
15595;SDS011;7898;48.658;9.068;2022-08-25T12:18:07;5.05;;;4.18;;
15595;SDS011;7898;48.658;9.068;2022-08-25T12:24:12;4.18;;;3.88;;
15595;SDS011;7898;48.658;9.068;2022-08-25T12:26:43;4.50;;;4.10;;
15595;SDS011;7898;48.658;9.068;2022-08-25T12:29:19;4.65;;;4.25;;
15595;SDS011;7898;48.658;9.068;2022-08-25T12:32:02;4.95;;;4.45;;
15595;SDS011;7898;48.658;9.068;2022-08-25T12:37:53;4.03;;;3.72;;
15595;SDS011;7898;48.658;9.068;2022-08-25T12:40:24;5.15;;;3.97;;
15595;SDS011;7898;48.658;9.068;2022-08-25T12:43:05;5.93;;;4.00;;
15595;SDS011;7898;48.658;9.068;2022-08-25T12:45:38;4.00;;;3.70;;
15595;SDS011;7898;48.658;9.068;2022-08-25T12:51:20;5.15;;;3.53;;
15595;SDS011;7898;48.658;9.068;2022-08-25T12:53:50;4.30;;;3.90;;
15595;SDS011;7898;48.658;9.068;2022-08-25T12:56:21;3.90;;;3.60;;
15595;SDS011;7898;48.658;9.068;2022-08-25T12:59:02;4.07;;;3.65;;
15595;SDS011;7898;48.658;9.068;2022-08-25T13:01:41;3.85;;;3.55;;
15595;SDS011;7898;48.658;9.068;2022-08-25T13:04:39;3.92;;;3.63;;
15595;SDS011;7898;48.658;9.068;2022-08-25T13:07:26;5.00;;;3.65;;
15595;SDS011;7898;48.658;9.068;2022-08-25T13:10:19;3.90;;;3.50;;
15595;SDS011;7898;48.658;9.068;2022-08-25T13:12:57;3.85;;;3.50;;
15595;SDS011;7898;48.658;9.068;2022-08-25T13:15:37;3.67;;;3.38;;
15595;SDS011;7898;48.658;9.068;2022-08-25T13:18:12;6.38;;;3.55;;
15595;SDS011;7898;48.658;9.068;2022-08-25T13:20:43;5.00;;;3.83;;
15595;SDS011;7898;48.658;9.068;2022-08-25T13:23:10;4.00;;;3.60;;
15595;SDS011;7898;48.658;9.068;2022-08-25T13:25:45;4.22;;;3.65;;
15595;SDS011;7898;48.658;9.068;2022-08-25T13:28:17;4.40;;;3.60;;
15595;SDS011;7898;48.658;9.068;2022-08-25T13:30:54;4.22;;;3.83;;
15595;SDS011;7898;48.658;9.068;2022-08-25T13:33:27;4.30;;;3.90;;
15595;SDS011;7898;48.658;9.068;2022-08-25T13:35:55;5.45;;;3.63;;
15595;SDS011;7898;48.658;9.068;2022-08-25T13:38:36;4.07;;;3.67;;
15595;SDS011;7898;48.658;9.068;2022-08-25T13:41:06;4.88;;;3.50;;
15595;SDS011;7898;48.658;9.068;2022-08-25T13:43:34;4.05;;;3.42;;
15595;SDS011;7898;48.658;9.068;2022-08-25T13:46:02;3.88;;;3.58;;
15595;SDS011;7898;48.658;9.068;2022-08-25T13:48:31;3.80;;;3.50;;
15595;SDS011;7898;48.658;9.068;2022-08-25T13:51:07;5.60;;;3.72;;
15595;SDS011;7898;48.658;9.068;2022-08-25T13:53:46;3.70;;;3.40;;
15595;SDS011;7898;48.658;9.068;2022-08-25T13:56:23;3.97;;;3.60;;
15595;SDS011;7898;48.658;9.068;2022-08-25T13:58:52;5.55;;;3.92;;
15595;SDS011;7898;48.658;9.068;2022-08-25T14:01:23;3.88;;;3.40;;
15595;SDS011;7898;48.658;9.068;2022-08-25T14:03:52;3.92;;;3.63;;
15595;SDS011;7898;48.658;9.068;2022-08-25T14:06:22;4.53;;;3.60;;
15595;SDS011;7898;48.658;9.068;2022-08-25T14:09:04;4.05;;;3.65;;
15595;SDS011;7898;48.658;9.068;2022-08-25T14:11:40;4.22;;;3.33;;
15595;SDS011;7898;48.658;9.068;2022-08-25T14:14:10;3.42;;;3.10;;
15595;SDS011;7898;48.658;9.068;2022-08-25T14:16:39;4.57;;;3.10;;
15595;SDS011;7898;48.658;9.068;2022-08-25T14:19:13;3.83;;;3.53;;
15595;SDS011;7898;48.658;9.068;2022-08-25T14:21:42;3.30;;;3.00;;
15595;SDS011;7898;48.658;9.068;2022-08-25T14:24:12;4.30;;;3.42;;
15595;SDS011;7898;48.658;9.068;2022-08-25T14:26:42;4.50;;;3.55;;
15595;SDS011;7898;48.658;9.068;2022-08-25T14:29:10;3.50;;;3.20;;
15595;SDS011;7898;48.658;9.068;2022-08-25T14:31:38;3.50;;;3.20;;
15595;SDS011;7898;48.658;9.068;2022-08-25T14:34:08;3.03;;;2.83;;
15595;SDS011;7898;48.658;9.068;2022-08-25T14:36:38;4.28;;;3.30;;
15595;SDS011;7898;48.658;9.068;2022-08-25T14:39:06;4.47;;;3.08;;
15595;SDS011;7898;48.658;9.068;2022-08-25T14:41:35;3.50;;;2.95;;
15595;SDS011;7898;48.658;9.068;2022-08-25T14:44:04;2.92;;;2.67;;
15595;SDS011;7898;48.658;9.068;2022-08-25T14:46:32;3.70;;;3.28;;
15595;SDS011;7898;48.658;9.068;2022-08-25T14:49:04;3.00;;;2.70;;
15595;SDS011;7898;48.658;9.068;2022-08-25T14:51:33;3.58;;;3.28;;
15595;SDS011;7898;48.658;9.068;2022-08-25T14:54:03;3.28;;;2.95;;
15595;SDS011;7898;48.658;9.068;2022-08-25T14:56:32;3.60;;;3.30;;
15595;SDS011;7898;48.658;9.068;2022-08-25T14:58:59;3.17;;;2.97;;
15595;SDS011;7898;48.658;9.068;2022-08-25T15:01:28;3.00;;;2.70;;
15595;SDS011;7898;48.658;9.068;2022-08-25T15:03:56;3.40;;;3.10;;
15595;SDS011;7898;48.658;9.068;2022-08-25T15:06:27;3.33;;;3.03;;
15595;SDS011;7898;48.658;9.068;2022-08-25T15:08:54;3.58;;;3.28;;
15595;SDS011;7898;48.658;9.068;2022-08-25T15:11:32;4.15;;;3.20;;
15595;SDS011;7898;48.658;9.068;2022-08-25T15:14:00;3.10;;;2.90;;
15595;SDS011;7898;48.658;9.068;2022-08-25T15:16:30;3.33;;;3.03;;
15595;SDS011;7898;48.658;9.068;2022-08-25T15:18:59;5.45;;;3.63;;
15595;SDS011;7898;48.658;9.068;2022-08-25T15:21:29;3.38;;;3.10;;
15595;SDS011;7898;48.658;9.068;2022-08-25T15:23:58;3.88;;;3.28;;
15595;SDS011;7898;48.658;9.068;2022-08-25T15:26:25;3.80;;;3.50;;
15595;SDS011;7898;48.658;9.068;2022-08-25T15:28:53;3.70;;;3.40;;
15595;SDS011;7898;48.658;9.068;2022-08-25T15:31:20;3.50;;;3.30;;
15595;SDS011;7898;48.658;9.068;2022-08-25T15:33:49;5.68;;;3.30;;
15595;SDS011;7898;48.658;9.068;2022-08-25T15:36:17;4.43;;;3.33;;
15595;SDS011;7898;48.658;9.068;2022-08-25T15:38:47;3.45;;;3.25;;
15595;SDS011;7898;48.658;9.068;2022-08-25T15:41:14;3.90;;;3.10;;
15595;SDS011;7898;48.658;9.068;2022-08-25T15:43:41;3.67;;;3.38;;